sensor_id;sensor_type;location;lat;lon;timestamp;P1;durP1;ratioP1;P2;durP2;ratioP2
58512;SDS011;44302;47.914;10.642;2022-07-12T00:01:55;3.33;;;1.97;;
58512;SDS011;44302;47.914;10.642;2022-07-12T00:04:21;2.07;;;1.87;;
58512;SDS011;44302;47.914;10.642;2022-07-12T00:06:47;2.30;;;1.97;;
58512;SDS011;44302;47.914;10.642;2022-07-12T00:09:13;2.27;;;2.07;;
58512;SDS011;44302;47.914;10.642;2022-07-12T00:11:39;2.53;;;2.17;;
58512;SDS011;44302;47.914;10.642;2022-07-12T00:14:05;2.23;;;2.00;;
58512;SDS011;44302;47.914;10.642;2022-07-12T00:16:31;4.57;;;2.27;;
58512;SDS011;44302;47.914;10.642;2022-07-12T00:18:56;2.70;;;2.13;;
58512;SDS011;44302;47.914;10.642;2022-07-12T00:21:22;2.37;;;2.13;;
58512;SDS011;44302;47.914;10.642;2022-07-12T00:23:48;2.87;;;1.93;;
58512;SDS011;44302;47.914;10.642;2022-07-12T00:26:13;4.83;;;2.33;;
58512;SDS011;44302;47.914;10.642;2022-07-12T00:28:39;2.60;;;1.90;;
58512;SDS011;44302;47.914;10.642;2022-07-12T00:31:05;3.37;;;2.17;;
58512;SDS011;44302;47.914;10.642;2022-07-12T00:33:31;4.43;;;2.20;;
58512;SDS011;44302;47.914;10.642;2022-07-12T00:35:56;2.07;;;1.87;;
58512;SDS011;44302;47.914;10.642;2022-07-12T00:38:22;2.73;;;2.00;;
58512;SDS011;44302;47.914;10.642;2022-07-12T00:40:48;2.50;;;2.20;;
58512;SDS011;44302;47.914;10.642;2022-07-12T00:43:14;2.10;;;1.73;;
58512;SDS011;44302;47.914;10.642;2022-07-12T00:45:40;2.73;;;2.00;;
58512;SDS011;44302;47.914;10.642;2022-07-12T00:48:06;2.23;;;2.03;;
58512;SDS011;44302;47.914;10.642;2022-07-12T00:50:33;2.33;;;2.03;;
58512;SDS011;44302;47.914;10.642;2022-07-12T00:52:59;2.30;;;2.03;;
58512;SDS011;44302;47.914;10.642;2022-07-12T00:55:25;4.40;;;2.00;;
58512;SDS011;44302;47.914;10.642;2022-07-12T00:57:51;4.13;;;2.40;;
58512;SDS011;44302;47.914;10.642;2022-07-12T01:00:29;2.53;;;2.33;;
58512;SDS011;44302;47.914;10.642;2022-07-12T01:02:56;2.73;;;2.23;;
58512;SDS011;44302;47.914;10.642;2022-07-12T01:05:23;2.40;;;2.20;;
58512;SDS011;44302;47.914;10.642;2022-07-12T01:07:49;2.20;;;2.00;;
58512;SDS011;44302;47.914;10.642;2022-07-12T01:10:15;4.67;;;2.20;;
58512;SDS011;44302;47.914;10.642;2022-07-12T01:12:41;4.03;;;1.90;;
58512;SDS011;44302;47.914;10.642;2022-07-12T01:15:08;4.93;;;2.00;;
58512;SDS011;44302;47.914;10.642;2022-07-12T01:17:34;2.20;;;2.00;;
58512;SDS011;44302;47.914;10.642;2022-07-12T01:20:00;2.80;;;2.60;;
58512;SDS011;44302;47.914;10.642;2022-07-12T01:22:30;2.73;;;2.10;;
58512;SDS011;44302;47.914;10.642;2022-07-12T01:24:57;3.47;;;2.20;;
58512;SDS011;44302;47.914;10.642;2022-07-12T01:27:24;2.63;;;2.27;;
58512;SDS011;44302;47.914;10.642;2022-07-12T01:29:50;3.47;;;2.20;;
58512;SDS011;44302;47.914;10.642;2022-07-12T01:32:16;3.83;;;2.20;;
58512;SDS011;44302;47.914;10.642;2022-07-12T01:34:55;3.67;;;2.30;;
58512;SDS011;44302;47.914;10.642;2022-07-12T01:37:23;2.47;;;2.20;;
58512;SDS011;44302;47.914;10.642;2022-07-12T01:39:51;2.13;;;1.93;;
58512;SDS011;44302;47.914;10.642;2022-07-12T01:42:22;3.03;;;2.47;;
58512;SDS011;44302;47.914;10.642;2022-07-12T01:44:49;2.93;;;1.93;;
58512;SDS011;44302;47.914;10.642;2022-07-12T01:47:19;2.60;;;2.40;;
58512;SDS011;44302;47.914;10.642;2022-07-12T01:49:45;3.60;;;2.30;;
58512;SDS011;44302;47.914;10.642;2022-07-12T01:52:11;3.83;;;2.60;;
58512;SDS011;44302;47.914;10.642;2022-07-12T01:54:38;3.23;;;2.50;;
58512;SDS011;44302;47.914;10.642;2022-07-12T01:57:04;2.60;;;2.33;;
58512;SDS011;44302;47.914;10.642;2022-07-12T01:59:30;3.10;;;2.47;;
58512;SDS011;44302;47.914;10.642;2022-07-12T02:01:57;3.50;;;2.50;;
58512;SDS011;44302;47.914;10.642;2022-07-12T02:04:23;3.47;;;2.70;;
58512;SDS011;44302;47.914;10.642;2022-07-12T02:06:49;2.83;;;2.37;;
58512;SDS011;44302;47.914;10.642;2022-07-12T02:09:15;3.73;;;2.50;;
58512;SDS011;44302;47.914;10.642;2022-07-12T02:11:41;3.93;;;2.43;;
58512;SDS011;44302;47.914;10.642;2022-07-12T02:14:08;2.57;;;2.37;;
58512;SDS011;44302;47.914;10.642;2022-07-12T02:16:34;2.97;;;2.20;;
58512;SDS011;44302;47.914;10.642;2022-07-12T02:19:00;3.17;;;2.50;;
58512;SDS011;44302;47.914;10.642;2022-07-12T02:21:26;3.53;;;2.67;;
58512;SDS011;44302;47.914;10.642;2022-07-12T02:23:52;2.70;;;2.50;;
58512;SDS011;44302;47.914;10.642;2022-07-12T02:26:18;2.63;;;2.40;;
58512;SDS011;44302;47.914;10.642;2022-07-12T02:28:47;2.83;;;2.50;;
58512;SDS011;44302;47.914;10.642;2022-07-12T02:31:13;2.93;;;2.63;;
58512;SDS011;44302;47.914;10.642;2022-07-12T02:33:39;3.17;;;2.40;;
58512;SDS011;44302;47.914;10.642;2022-07-12T02:36:04;2.70;;;2.50;;
58512;SDS011;44302;47.914;10.642;2022-07-12T02:38:31;2.80;;;2.53;;
58512;SDS011;44302;47.914;10.642;2022-07-12T02:40:57;3.27;;;2.40;;
58512;SDS011;44302;47.914;10.642;2022-07-12T02:43:26;2.93;;;2.63;;
58512;SDS011;44302;47.914;10.642;2022-07-12T02:45:54;2.60;;;2.37;;
58512;SDS011;44302;47.914;10.642;2022-07-12T02:48:27;3.20;;;2.40;;
58512;SDS011;44302;47.914;10.642;2022-07-12T02:50:53;3.00;;;2.70;;
58512;SDS011;44302;47.914;10.642;2022-07-12T02:53:19;2.40;;;2.20;;
58512;SDS011;44302;47.914;10.642;2022-07-12T02:55:44;6.13;;;3.03;;
58512;SDS011;44302;47.914;10.642;2022-07-12T02:58:10;2.80;;;2.40;;
58512;SDS011;44302;47.914;10.642;2022-07-12T03:00:39;3.57;;;2.73;;
58512;SDS011;44302;47.914;10.642;2022-07-12T03:03:04;2.93;;;2.50;;
58512;SDS011;44302;47.914;10.642;2022-07-12T03:05:33;4.07;;;2.80;;
58512;SDS011;44302;47.914;10.642;2022-07-12T03:07:59;9.57;;;2.97;;
58512;SDS011;44302;47.914;10.642;2022-07-12T03:10:25;3.70;;;2.50;;
58512;SDS011;44302;47.914;10.642;2022-07-12T03:12:51;2.73;;;2.43;;
58512;SDS011;44302;47.914;10.642;2022-07-12T03:15:16;3.30;;;2.60;;
58512;SDS011;44302;47.914;10.642;2022-07-12T03:17:42;3.73;;;2.57;;
58512;SDS011;44302;47.914;10.642;2022-07-12T03:20:08;3.70;;;2.33;;
58512;SDS011;44302;47.914;10.642;2022-07-12T03:22:36;3.77;;;2.77;;
58512;SDS011;44302;47.914;10.642;2022-07-12T03:25:03;3.93;;;2.90;;
58512;SDS011;44302;47.914;10.642;2022-07-12T03:27:29;4.23;;;3.17;;
58512;SDS011;44302;47.914;10.642;2022-07-12T03:29:56;3.47;;;2.77;;
58512;SDS011;44302;47.914;10.642;2022-07-12T03:32:22;3.60;;;2.40;;
58512;SDS011;44302;47.914;10.642;2022-07-12T03:34:49;3.93;;;2.67;;
58512;SDS011;44302;47.914;10.642;2022-07-12T03:37:14;3.20;;;2.53;;
58512;SDS011;44302;47.914;10.642;2022-07-12T03:39:40;3.00;;;2.53;;
58512;SDS011;44302;47.914;10.642;2022-07-12T03:42:06;6.33;;;2.50;;
58512;SDS011;44302;47.914;10.642;2022-07-12T03:44:31;3.73;;;3.07;;
58512;SDS011;44302;47.914;10.642;2022-07-12T03:46:58;4.03;;;3.20;;
58512;SDS011;44302;47.914;10.642;2022-07-12T03:49:24;2.60;;;2.40;;
58512;SDS011;44302;47.914;10.642;2022-07-12T03:51:50;4.03;;;3.20;;
58512;SDS011;44302;47.914;10.642;2022-07-12T03:54:16;3.77;;;2.63;;
58512;SDS011;44302;47.914;10.642;2022-07-12T03:56:41;3.20;;;2.63;;
58512;SDS011;44302;47.914;10.642;2022-07-12T03:59:26;3.73;;;2.90;;
58512;SDS011;44302;47.914;10.642;2022-07-12T04:01:52;2.93;;;2.63;;
58512;SDS011;44302;47.914;10.642;2022-07-12T04:04:18;2.97;;;2.60;;
58512;SDS011;44302;47.914;10.642;2022-07-12T04:06:43;6.30;;;2.50;;
58512;SDS011;44302;47.914;10.642;2022-07-12T04:09:09;2.77;;;2.57;;
58512;SDS011;44302;47.914;10.642;2022-07-12T04:11:35;4.87;;;2.50;;
58512;SDS011;44302;47.914;10.642;2022-07-12T04:14:00;5.30;;;2.90;;
58512;SDS011;44302;47.914;10.642;2022-07-12T04:16:26;4.67;;;2.63;;
58512;SDS011;44302;47.914;10.642;2022-07-12T04:18:52;3.83;;;2.47;;
58512;SDS011;44302;47.914;10.642;2022-07-12T04:21:19;3.70;;;2.90;;
58512;SDS011;44302;47.914;10.642;2022-07-12T04:23:44;4.77;;;3.00;;
58512;SDS011;44302;47.914;10.642;2022-07-12T04:26:10;4.27;;;2.90;;
58512;SDS011;44302;47.914;10.642;2022-07-12T04:28:36;3.30;;;3.00;;
58512;SDS011;44302;47.914;10.642;2022-07-12T04:31:02;3.77;;;3.00;;
58512;SDS011;44302;47.914;10.642;2022-07-12T04:33:28;2.90;;;2.53;;
58512;SDS011;44302;47.914;10.642;2022-07-12T04:35:54;4.73;;;3.00;;
58512;SDS011;44302;47.914;10.642;2022-07-12T04:38:20;4.07;;;2.80;;
58512;SDS011;44302;47.914;10.642;2022-07-12T04:40:46;4.83;;;2.63;;
58512;SDS011;44302;47.914;10.642;2022-07-12T04:43:11;4.67;;;2.90;;
58512;SDS011;44302;47.914;10.642;2022-07-12T04:45:37;4.50;;;3.53;;
58512;SDS011;44302;47.914;10.642;2022-07-12T04:48:03;4.43;;;3.50;;
58512;SDS011;44302;47.914;10.642;2022-07-12T04:50:29;3.40;;;3.10;;
58512;SDS011;44302;47.914;10.642;2022-07-12T04:52:54;3.67;;;2.67;;
58512;SDS011;44302;47.914;10.642;2022-07-12T04:55:20;5.13;;;3.00;;
58512;SDS011;44302;47.914;10.642;2022-07-12T04:57:45;5.90;;;3.53;;
58512;SDS011;44302;47.914;10.642;2022-07-12T05:00:12;3.17;;;2.87;;
58512;SDS011;44302;47.914;10.642;2022-07-12T05:02:38;3.03;;;2.63;;
58512;SDS011;44302;47.914;10.642;2022-07-12T05:05:04;3.17;;;2.87;;
58512;SDS011;44302;47.914;10.642;2022-07-12T05:07:30;4.23;;;3.10;;
58512;SDS011;44302;47.914;10.642;2022-07-12T05:09:56;4.63;;;3.00;;
58512;SDS011;44302;47.914;10.642;2022-07-12T05:12:21;3.63;;;2.97;;
58512;SDS011;44302;47.914;10.642;2022-07-12T05:14:47;3.00;;;2.70;;
58512;SDS011;44302;47.914;10.642;2022-07-12T05:17:13;5.27;;;2.77;;
58512;SDS011;44302;47.914;10.642;2022-07-12T05:19:38;5.83;;;2.77;;
58512;SDS011;44302;47.914;10.642;2022-07-12T05:22:05;3.37;;;3.03;;
58512;SDS011;44302;47.914;10.642;2022-07-12T05:24:30;3.20;;;2.90;;
58512;SDS011;44302;47.914;10.642;2022-07-12T05:26:56;3.50;;;2.60;;
58512;SDS011;44302;47.914;10.642;2022-07-12T05:29:22;3.17;;;2.87;;
58512;SDS011;44302;47.914;10.642;2022-07-12T05:31:48;4.87;;;2.80;;
58512;SDS011;44302;47.914;10.642;2022-07-12T05:34:13;4.73;;;3.20;;
58512;SDS011;44302;47.914;10.642;2022-07-12T05:36:39;5.50;;;2.90;;
58512;SDS011;44302;47.914;10.642;2022-07-12T05:39:05;6.63;;;3.23;;
58512;SDS011;44302;47.914;10.642;2022-07-12T05:41:31;9.90;;;3.57;;
58512;SDS011;44302;47.914;10.642;2022-07-12T05:43:57;3.70;;;3.10;;
58512;SDS011;44302;47.914;10.642;2022-07-12T05:46:23;4.03;;;3.17;;
58512;SDS011;44302;47.914;10.642;2022-07-12T05:48:50;4.10;;;3.13;;
58512;SDS011;44302;47.914;10.642;2022-07-12T05:51:18;5.23;;;4.47;;
58512;SDS011;44302;47.914;10.642;2022-07-12T05:54:02;5.23;;;4.47;;
58512;SDS011;44302;47.914;10.642;2022-07-12T05:56:29;5.07;;;4.27;;
58512;SDS011;44302;47.914;10.642;2022-07-12T05:58:55;7.17;;;4.30;;
58512;SDS011;44302;47.914;10.642;2022-07-12T06:01:20;8.13;;;4.70;;
58512;SDS011;44302;47.914;10.642;2022-07-12T06:03:46;7.60;;;5.10;;
58512;SDS011;44302;47.914;10.642;2022-07-12T06:06:12;7.50;;;4.43;;
58512;SDS011;44302;47.914;10.642;2022-07-12T06:08:38;5.77;;;4.20;;
58512;SDS011;44302;47.914;10.642;2022-07-12T06:11:04;6.97;;;4.60;;
58512;SDS011;44302;47.914;10.642;2022-07-12T06:13:30;8.50;;;4.77;;
58512;SDS011;44302;47.914;10.642;2022-07-12T06:15:55;8.53;;;5.57;;
58512;SDS011;44302;47.914;10.642;2022-07-12T06:18:21;7.37;;;4.73;;
58512;SDS011;44302;47.914;10.642;2022-07-12T06:20:47;7.53;;;5.30;;
58512;SDS011;44302;47.914;10.642;2022-07-12T06:23:13;7.43;;;5.07;;
58512;SDS011;44302;47.914;10.642;2022-07-12T06:25:39;5.77;;;5.13;;
58512;SDS011;44302;47.914;10.642;2022-07-12T06:28:05;10.73;;;5.40;;
58512;SDS011;44302;47.914;10.642;2022-07-12T06:30:31;6.83;;;5.33;;
58512;SDS011;44302;47.914;10.642;2022-07-12T06:32:56;10.93;;;5.33;;
58512;SDS011;44302;47.914;10.642;2022-07-12T06:35:22;10.53;;;5.57;;
58512;SDS011;44302;47.914;10.642;2022-07-12T06:37:48;9.60;;;5.10;;
58512;SDS011;44302;47.914;10.642;2022-07-12T06:40:14;6.37;;;4.80;;
58512;SDS011;44302;47.914;10.642;2022-07-12T06:42:42;6.80;;;5.33;;
58512;SDS011;44302;47.914;10.642;2022-07-12T06:45:09;6.20;;;4.70;;
58512;SDS011;44302;47.914;10.642;2022-07-12T06:47:35;10.63;;;5.43;;
58512;SDS011;44302;47.914;10.642;2022-07-12T06:50:01;8.33;;;5.20;;
58512;SDS011;44302;47.914;10.642;2022-07-12T06:52:28;5.57;;;4.40;;
58512;SDS011;44302;47.914;10.642;2022-07-12T06:54:55;4.10;;;3.70;;
58512;SDS011;44302;47.914;10.642;2022-07-12T06:57:21;4.20;;;3.80;;
58512;SDS011;44302;47.914;10.642;2022-07-12T06:59:46;6.03;;;3.87;;
58512;SDS011;44302;47.914;10.642;2022-07-12T07:02:13;7.37;;;3.97;;
58512;SDS011;44302;47.914;10.642;2022-07-12T07:04:39;7.33;;;4.23;;
58512;SDS011;44302;47.914;10.642;2022-07-12T07:07:04;3.87;;;3.47;;
58512;SDS011;44302;47.914;10.642;2022-07-12T07:09:30;4.43;;;4.00;;
58512;SDS011;44302;47.914;10.642;2022-07-12T07:11:55;8.53;;;3.20;;
58512;SDS011;44302;47.914;10.642;2022-07-12T07:14:24;5.90;;;3.40;;
58512;SDS011;44302;47.914;10.642;2022-07-12T07:16:50;3.10;;;2.83;;
58512;SDS011;44302;47.914;10.642;2022-07-12T07:19:17;2.47;;;2.17;;
58512;SDS011;44302;47.914;10.642;2022-07-12T07:21:43;2.10;;;1.77;;
58512;SDS011;44302;47.914;10.642;2022-07-12T07:24:09;3.70;;;2.10;;
58512;SDS011;44302;47.914;10.642;2022-07-12T07:26:35;2.33;;;2.00;;
58512;SDS011;44302;47.914;10.642;2022-07-12T07:29:01;2.47;;;2.00;;
58512;SDS011;44302;47.914;10.642;2022-07-12T07:31:46;3.17;;;2.10;;
58512;SDS011;44302;47.914;10.642;2022-07-12T07:34:11;2.03;;;1.80;;
58512;SDS011;44302;47.914;10.642;2022-07-12T07:36:37;3.13;;;1.60;;
58512;SDS011;44302;47.914;10.642;2022-07-12T07:39:03;2.90;;;1.97;;
58512;SDS011;44302;47.914;10.642;2022-07-12T07:41:28;3.00;;;1.57;;
58512;SDS011;44302;47.914;10.642;2022-07-12T07:43:54;2.13;;;1.20;;
58512;SDS011;44302;47.914;10.642;2022-07-12T07:46:20;1.67;;;1.30;;
58512;SDS011;44302;47.914;10.642;2022-07-12T07:48:45;4.10;;;1.43;;
58512;SDS011;44302;47.914;10.642;2022-07-12T07:51:11;3.33;;;1.40;;
58512;SDS011;44302;47.914;10.642;2022-07-12T07:53:37;3.83;;;1.60;;
58512;SDS011;44302;47.914;10.642;2022-07-12T07:56:02;4.07;;;1.70;;
58512;SDS011;44302;47.914;10.642;2022-07-12T07:58:28;2.10;;;1.53;;
58512;SDS011;44302;47.914;10.642;2022-07-12T08:00:54;2.47;;;1.47;;
58512;SDS011;44302;47.914;10.642;2022-07-12T08:03:20;1.67;;;1.30;;
58512;SDS011;44302;47.914;10.642;2022-07-12T08:05:46;1.27;;;1.17;;
58512;SDS011;44302;47.914;10.642;2022-07-12T08:08:13;2.13;;;1.43;;
58512;SDS011;44302;47.914;10.642;2022-07-12T08:10:39;2.70;;;1.20;;
58512;SDS011;44302;47.914;10.642;2022-07-12T08:13:05;2.70;;;1.50;;
58512;SDS011;44302;47.914;10.642;2022-07-12T08:15:30;1.30;;;1.20;;
58512;SDS011;44302;47.914;10.642;2022-07-12T08:17:57;2.23;;;1.57;;
58512;SDS011;44302;47.914;10.642;2022-07-12T08:20:23;3.53;;;1.60;;
58512;SDS011;44302;47.914;10.642;2022-07-12T08:22:49;1.67;;;1.47;;
58512;SDS011;44302;47.914;10.642;2022-07-12T08:25:15;1.40;;;1.30;;
58512;SDS011;44302;47.914;10.642;2022-07-12T08:27:41;1.40;;;1.30;;
58512;SDS011;44302;47.914;10.642;2022-07-12T08:30:07;2.70;;;1.40;;
58512;SDS011;44302;47.914;10.642;2022-07-12T08:32:34;1.87;;;1.40;;
58512;SDS011;44302;47.914;10.642;2022-07-12T08:35:00;1.40;;;1.30;;
58512;SDS011;44302;47.914;10.642;2022-07-12T08:37:26;1.87;;;1.30;;
58512;SDS011;44302;47.914;10.642;2022-07-12T08:39:51;5.53;;;1.43;;
58512;SDS011;44302;47.914;10.642;2022-07-12T08:42:17;1.40;;;1.30;;
58512;SDS011;44302;47.914;10.642;2022-07-12T08:44:44;1.50;;;1.40;;
58512;SDS011;44302;47.914;10.642;2022-07-12T08:47:18;2.70;;;1.70;;
58512;SDS011;44302;47.914;10.642;2022-07-12T08:49:56;2.00;;;1.73;;
58512;SDS011;44302;47.914;10.642;2022-07-12T08:52:39;2.33;;;1.40;;
58512;SDS011;44302;47.914;10.642;2022-07-12T08:55:17;2.80;;;1.53;;
58512;SDS011;44302;47.914;10.642;2022-07-12T08:57:55;1.67;;;1.40;;
58512;SDS011;44302;47.914;10.642;2022-07-12T09:00:22;1.97;;;1.63;;
58512;SDS011;44302;47.914;10.642;2022-07-12T09:02:53;2.73;;;1.40;;
58512;SDS011;44302;47.914;10.642;2022-07-12T09:05:22;1.83;;;1.50;;
58512;SDS011;44302;47.914;10.642;2022-07-12T09:07:49;1.73;;;1.50;;
58512;SDS011;44302;47.914;10.642;2022-07-12T09:10:15;1.23;;;1.13;;
58512;SDS011;44302;47.914;10.642;2022-07-12T09:12:42;2.00;;;1.73;;
58512;SDS011;44302;47.914;10.642;2022-07-12T09:15:12;3.30;;;1.80;;
58512;SDS011;44302;47.914;10.642;2022-07-12T09:20:30;2.27;;;1.40;;
58512;SDS011;44302;47.914;10.642;2022-07-12T09:23:05;3.50;;;1.70;;
58512;SDS011;44302;47.914;10.642;2022-07-12T09:25:33;1.50;;;1.40;;
58512;SDS011;44302;47.914;10.642;2022-07-12T09:28:01;2.30;;;1.90;;
58512;SDS011;44302;47.914;10.642;2022-07-12T09:30:29;1.57;;;1.40;;
58512;SDS011;44302;47.914;10.642;2022-07-12T09:35:58;2.00;;;1.50;;
58512;SDS011;44302;47.914;10.642;2022-07-12T09:41:10;7.30;;;1.80;;
58512;SDS011;44302;47.914;10.642;2022-07-12T09:43:41;2.37;;;1.80;;
58512;SDS011;44302;47.914;10.642;2022-07-12T09:46:08;2.83;;;1.87;;
58512;SDS011;44302;47.914;10.642;2022-07-12T09:48:35;3.27;;;1.57;;
58512;SDS011;44302;47.914;10.642;2022-07-12T09:51:02;2.90;;;1.80;;
58512;SDS011;44302;47.914;10.642;2022-07-12T09:53:38;2.53;;;1.80;;
58512;SDS011;44302;47.914;10.642;2022-07-12T09:56:09;2.80;;;1.90;;
58512;SDS011;44302;47.914;10.642;2022-07-12T09:58:39;2.63;;;1.60;;
58512;SDS011;44302;47.914;10.642;2022-07-12T10:01:08;2.00;;;1.47;;
58512;SDS011;44302;47.914;10.642;2022-07-12T10:03:35;1.83;;;1.50;;
58512;SDS011;44302;47.914;10.642;2022-07-12T10:06:05;2.07;;;1.33;;
58512;SDS011;44302;47.914;10.642;2022-07-12T10:08:32;3.77;;;1.57;;
58512;SDS011;44302;47.914;10.642;2022-07-12T10:10:58;3.87;;;1.23;;
58512;SDS011;44302;47.914;10.642;2022-07-12T10:13:24;1.63;;;1.53;;
58512;SDS011;44302;47.914;10.642;2022-07-12T10:15:50;3.37;;;1.47;;
58512;SDS011;44302;47.914;10.642;2022-07-12T10:18:22;1.87;;;1.40;;
58512;SDS011;44302;47.914;10.642;2022-07-12T10:20:48;1.90;;;1.60;;
58512;SDS011;44302;47.914;10.642;2022-07-12T10:25:55;2.80;;;1.40;;
58512;SDS011;44302;47.914;10.642;2022-07-12T10:28:21;1.97;;;1.47;;
58512;SDS011;44302;47.914;10.642;2022-07-12T10:30:48;1.67;;;1.33;;
58512;SDS011;44302;47.914;10.642;2022-07-12T10:33:18;2.73;;;1.43;;
58512;SDS011;44302;47.914;10.642;2022-07-12T10:36:05;1.63;;;1.20;;
58512;SDS011;44302;47.914;10.642;2022-07-12T10:38:32;5.63;;;1.30;;
58512;SDS011;44302;47.914;10.642;2022-07-12T10:41:18;1.40;;;1.23;;
58512;SDS011;44302;47.914;10.642;2022-07-12T10:43:45;2.80;;;1.23;;
58512;SDS011;44302;47.914;10.642;2022-07-12T10:46:29;2.77;;;1.30;;
58512;SDS011;44302;47.914;10.642;2022-07-12T10:54:37;1.37;;;1.27;;
58512;SDS011;44302;47.914;10.642;2022-07-12T10:57:03;1.73;;;1.13;;
58512;SDS011;44302;47.914;10.642;2022-07-12T10:59:29;2.83;;;1.37;;
58512;SDS011;44302;47.914;10.642;2022-07-12T11:01:58;1.43;;;1.20;;
58512;SDS011;44302;47.914;10.642;2022-07-12T11:04:25;1.20;;;1.10;;
58512;SDS011;44302;47.914;10.642;2022-07-12T11:06:52;3.80;;;1.30;;
58512;SDS011;44302;47.914;10.642;2022-07-12T11:09:22;1.47;;;1.37;;
58512;SDS011;44302;47.914;10.642;2022-07-12T11:11:49;1.63;;;1.17;;
58512;SDS011;44302;47.914;10.642;2022-07-12T11:14:28;2.30;;;1.03;;
58512;SDS011;44302;47.914;10.642;2022-07-12T11:16:57;6.23;;;1.07;;
58512;SDS011;44302;47.914;10.642;2022-07-12T11:19:24;1.47;;;1.27;;
58512;SDS011;44302;47.914;10.642;2022-07-12T11:21:52;1.20;;;1.10;;
58512;SDS011;44302;47.914;10.642;2022-07-12T11:24:22;1.30;;;1.20;;
58512;SDS011;44302;47.914;10.642;2022-07-12T11:26:58;2.20;;;1.20;;
58512;SDS011;44302;47.914;10.642;2022-07-12T11:29:27;1.97;;;1.37;;
58512;SDS011;44302;47.914;10.642;2022-07-12T11:32:00;1.20;;;1.10;;
58512;SDS011;44302;47.914;10.642;2022-07-12T11:34:28;1.80;;;1.07;;
58512;SDS011;44302;47.914;10.642;2022-07-12T11:36:58;5.03;;;1.20;;
58512;SDS011;44302;47.914;10.642;2022-07-12T11:39:32;3.73;;;1.03;;
58512;SDS011;44302;47.914;10.642;2022-07-12T11:41:58;2.23;;;1.10;;
58512;SDS011;44302;47.914;10.642;2022-07-12T11:44:41;2.63;;;1.00;;
58512;SDS011;44302;47.914;10.642;2022-07-12T11:47:14;1.37;;;1.10;;
58512;SDS011;44302;47.914;10.642;2022-07-12T11:49:44;1.20;;;1.10;;
58512;SDS011;44302;47.914;10.642;2022-07-12T11:52:21;1.33;;;1.17;;
58512;SDS011;44302;47.914;10.642;2022-07-12T11:54:48;2.50;;;1.00;;
58512;SDS011;44302;47.914;10.642;2022-07-12T11:57:19;1.63;;;1.10;;
58512;SDS011;44302;47.914;10.642;2022-07-12T11:59:46;1.23;;;0.90;;
58512;SDS011;44302;47.914;10.642;2022-07-12T12:02:13;1.50;;;0.90;;
58512;SDS011;44302;47.914;10.642;2022-07-12T12:04:44;1.87;;;0.80;;
58512;SDS011;44302;47.914;10.642;2022-07-12T12:07:14;4.27;;;1.10;;
58512;SDS011;44302;47.914;10.642;2022-07-12T12:10:00;2.47;;;1.13;;
58512;SDS011;44302;47.914;10.642;2022-07-12T12:12:34;1.60;;;0.80;;
58512;SDS011;44302;47.914;10.642;2022-07-12T12:15:06;2.47;;;1.00;;
58512;SDS011;44302;47.914;10.642;2022-07-12T12:17:34;1.10;;;1.00;;
58512;SDS011;44302;47.914;10.642;2022-07-12T12:20:15;1.67;;;0.90;;
58512;SDS011;44302;47.914;10.642;2022-07-12T12:22:48;1.73;;;0.90;;
58512;SDS011;44302;47.914;10.642;2022-07-12T12:25:15;1.77;;;0.80;;
58512;SDS011;44302;47.914;10.642;2022-07-12T12:27:45;4.33;;;1.10;;
58512;SDS011;44302;47.914;10.642;2022-07-12T12:30:12;3.50;;;1.10;;
58512;SDS011;44302;47.914;10.642;2022-07-12T12:37:59;1.20;;;1.00;;
58512;SDS011;44302;47.914;10.642;2022-07-12T12:40:27;1.07;;;0.93;;
58512;SDS011;44302;47.914;10.642;2022-07-12T12:43:10;2.80;;;0.80;;
58512;SDS011;44302;47.914;10.642;2022-07-12T12:45:53;1.40;;;1.10;;
58512;SDS011;44302;47.914;10.642;2022-07-12T12:48:21;1.00;;;0.90;;
58512;SDS011;44302;47.914;10.642;2022-07-12T12:50:48;1.33;;;1.23;;
58512;SDS011;44302;47.914;10.642;2022-07-12T12:55:46;4.93;;;1.13;;
58512;SDS011;44302;47.914;10.642;2022-07-12T12:58:13;3.63;;;1.10;;
58512;SDS011;44302;47.914;10.642;2022-07-12T13:00:40;2.10;;;0.90;;
58512;SDS011;44302;47.914;10.642;2022-07-12T13:03:08;3.60;;;1.00;;
58512;SDS011;44302;47.914;10.642;2022-07-12T13:05:34;2.17;;;1.63;;
58512;SDS011;44302;47.914;10.642;2022-07-12T13:08:02;2.93;;;1.30;;
58512;SDS011;44302;47.914;10.642;2022-07-12T13:10:29;1.77;;;1.20;;
58512;SDS011;44302;47.914;10.642;2022-07-12T13:12:55;1.73;;;1.10;;
58512;SDS011;44302;47.914;10.642;2022-07-12T13:15:21;1.73;;;1.20;;
58512;SDS011;44302;47.914;10.642;2022-07-12T13:17:47;1.80;;;1.00;;
58512;SDS011;44302;47.914;10.642;2022-07-12T13:20:13;0.90;;;0.90;;
58512;SDS011;44302;47.914;10.642;2022-07-12T13:22:39;1.53;;;1.00;;
58512;SDS011;44302;47.914;10.642;2022-07-12T13:25:07;2.57;;;1.10;;
58512;SDS011;44302;47.914;10.642;2022-07-12T13:27:34;0.93;;;0.90;;
58512;SDS011;44302;47.914;10.642;2022-07-12T13:30:00;2.20;;;0.90;;
58512;SDS011;44302;47.914;10.642;2022-07-12T13:32:25;1.87;;;0.90;;
58512;SDS011;44302;47.914;10.642;2022-07-12T13:34:51;1.10;;;0.93;;
58512;SDS011;44302;47.914;10.642;2022-07-12T13:37:17;1.20;;;1.10;;
58512;SDS011;44302;47.914;10.642;2022-07-12T13:39:42;2.37;;;1.20;;
58512;SDS011;44302;47.914;10.642;2022-07-12T13:42:27;1.43;;;1.00;;
58512;SDS011;44302;47.914;10.642;2022-07-12T13:44:53;1.17;;;0.80;;
58512;SDS011;44302;47.914;10.642;2022-07-12T13:47:19;1.30;;;0.80;;
58512;SDS011;44302;47.914;10.642;2022-07-12T13:49:46;2.93;;;1.03;;
58512;SDS011;44302;47.914;10.642;2022-07-12T13:52:13;3.73;;;1.10;;
58512;SDS011;44302;47.914;10.642;2022-07-12T13:54:40;1.20;;;0.83;;
58512;SDS011;44302;47.914;10.642;2022-07-12T13:57:08;0.80;;;0.80;;
58512;SDS011;44302;47.914;10.642;2022-07-12T13:59:35;1.73;;;1.10;;
58512;SDS011;44302;47.914;10.642;2022-07-12T14:02:01;2.80;;;0.90;;
58512;SDS011;44302;47.914;10.642;2022-07-12T14:04:28;1.50;;;1.07;;
58512;SDS011;44302;47.914;10.642;2022-07-12T14:06:54;2.60;;;1.00;;
58512;SDS011;44302;47.914;10.642;2022-07-12T14:09:20;1.33;;;0.90;;
58512;SDS011;44302;47.914;10.642;2022-07-12T14:11:46;1.47;;;1.10;;
58512;SDS011;44302;47.914;10.642;2022-07-12T14:14:11;2.10;;;0.80;;
58512;SDS011;44302;47.914;10.642;2022-07-12T14:16:37;2.30;;;0.70;;
58512;SDS011;44302;47.914;10.642;2022-07-12T14:19:03;2.23;;;0.90;;
58512;SDS011;44302;47.914;10.642;2022-07-12T14:21:29;1.63;;;0.80;;
58512;SDS011;44302;47.914;10.642;2022-07-12T14:23:55;2.37;;;0.93;;
58512;SDS011;44302;47.914;10.642;2022-07-12T14:26:24;1.20;;;0.80;;
58512;SDS011;44302;47.914;10.642;2022-07-12T14:28:50;1.77;;;0.80;;
58512;SDS011;44302;47.914;10.642;2022-07-12T14:31:15;1.90;;;0.80;;
58512;SDS011;44302;47.914;10.642;2022-07-12T14:33:41;1.53;;;0.90;;
58512;SDS011;44302;47.914;10.642;2022-07-12T14:36:07;2.23;;;0.80;;
58512;SDS011;44302;47.914;10.642;2022-07-12T14:38:33;1.40;;;0.80;;
58512;SDS011;44302;47.914;10.642;2022-07-12T14:40:58;1.77;;;0.83;;
58512;SDS011;44302;47.914;10.642;2022-07-12T14:43:24;1.33;;;0.77;;
58512;SDS011;44302;47.914;10.642;2022-07-12T14:45:50;0.93;;;0.80;;
58512;SDS011;44302;47.914;10.642;2022-07-12T14:48:16;0.80;;;0.77;;
58512;SDS011;44302;47.914;10.642;2022-07-12T14:50:41;0.83;;;0.77;;
58512;SDS011;44302;47.914;10.642;2022-07-12T14:53:07;1.53;;;0.90;;
58512;SDS011;44302;47.914;10.642;2022-07-12T14:55:33;0.93;;;0.60;;
58512;SDS011;44302;47.914;10.642;2022-07-12T14:57:59;1.73;;;0.90;;
58512;SDS011;44302;47.914;10.642;2022-07-12T15:00:25;1.07;;;0.97;;